BAW627 EGKK-LFBO
Flight info
| Callsign | BAW627 |
|---|---|
| Flight time | 1h 19m |
| Altitude | 35000 |
| Route | SFD Y47 BENBO UY47 DRAKE L151 SITET UN859 SOPIL DCT BALAN DCT EVPOK DCT NARAK |
| Aircraft | A320/M-SDE3FGHIRWY/LB1 |
Departure
| Time | 2026-05-04 10:46 |
|---|---|
| Airport | London Gatwick Airport (EGKK) |
Arrival
| Time | 2026-05-04 12:06 |
|---|---|
| Airport | Toulouse-Blagnac Airport (LFBO) |
| Time | Latitude | Longitude | Altitude | Speed | Heading |
|---|---|---|---|---|---|
| 2026-05-04 09:37 | 51.15422 | -0.17786 | 211 ft | 0 kts | 168° |
| 2026-05-04 10:25 | 51.15424 | -0.17786 | 210 ft | 1 kts | 168° |
| 2026-05-04 10:26 | 51.15441 | -0.17792 | 210 ft | 3 kts | 172° |
| 2026-05-04 10:26 | 51.15461 | -0.17795 | 210 ft | 3 kts | 181° |
| 2026-05-04 10:26 | 51.15480 | -0.17791 | 210 ft | 3 kts | 205° |
| 2026-05-04 10:26 | 51.15493 | -0.17776 | 210 ft | 2 kts | 252° |
| 2026-05-04 10:27 | 51.15494 | -0.17771 | 210 ft | 0 kts | 257° |
| 2026-05-04 10:31 | 51.15494 | -0.17772 | 210 ft | 0 kts | 257° |
| 2026-05-04 10:32 | 51.15473 | -0.17916 | 210 ft | 9 kts | 257° |
| 2026-05-04 10:33 | 51.15460 | -0.18021 | 210 ft | 11 kts | 259° |
| 2026-05-04 10:33 | 51.15444 | -0.18149 | 210 ft | 13 kts | 258° |
| 2026-05-04 10:33 | 51.15418 | -0.18273 | 210 ft | 8 kts | 225° |
| 2026-05-04 10:33 | 51.15364 | -0.18276 | 210 ft | 9 kts | 165° |
| 2026-05-04 10:34 | 51.15294 | -0.18250 | 210 ft | 11 kts | 168° |
| 2026-05-04 10:34 | 51.15212 | -0.18224 | 210 ft | 10 kts | 171° |
| 2026-05-04 10:34 | 51.15176 | -0.18298 | 210 ft | 11 kts | 263° |
| 2026-05-04 10:34 | 51.15165 | -0.18428 | 210 ft | 13 kts | 258° |
| 2026-05-04 10:35 | 51.15144 | -0.18579 | 210 ft | 15 kts | 257° |
| 2026-05-04 10:35 | 51.15119 | -0.18753 | 210 ft | 17 kts | 256° |
| 2026-05-04 10:35 | 51.15089 | -0.18947 | 210 ft | 19 kts | 257° |
| 2026-05-04 10:35 | 51.15065 | -0.19139 | 210 ft | 8 kts | 259° |
| 2026-05-04 10:36 | 51.15053 | -0.19231 | 210 ft | 9 kts | 258° |
| 2026-05-04 10:36 | 51.15003 | -0.19268 | 210 ft | 9 kts | 174° |
| 2026-05-04 10:36 | 51.14950 | -0.19321 | 210 ft | 11 kts | 250° |
| 2026-05-04 10:36 | 51.14932 | -0.19449 | 210 ft | 13 kts | 258° |
| 2026-05-04 10:37 | 51.14912 | -0.19602 | 210 ft | 15 kts | 258° |
| 2026-05-04 10:37 | 51.14889 | -0.19777 | 210 ft | 17 kts | 257° |
| 2026-05-04 10:37 | 51.14859 | -0.19975 | 210 ft | 19 kts | 257° |
| 2026-05-04 10:37 | 51.14829 | -0.20193 | 210 ft | 21 kts | 258° |
| 2026-05-04 10:39 | 51.14725 | -0.20962 | 210 ft | 1 kts | 257° |
| 2026-05-04 10:39 | 51.14723 | -0.20978 | 210 ft | 0 kts | 257° |
| 2026-05-04 10:40 | 51.14721 | -0.20988 | 210 ft | 2 kts | 257° |
| 2026-05-04 10:40 | 51.14715 | -0.21027 | 210 ft | 5 kts | 257° |
| 2026-05-04 10:40 | 51.14706 | -0.21089 | 210 ft | 7 kts | 257° |
| 2026-05-04 10:40 | 51.14696 | -0.21163 | 210 ft | 0 kts | 259° |
| 2026-05-04 10:41 | 51.14695 | -0.21175 | 210 ft | 2 kts | 259° |
| 2026-05-04 10:41 | 51.14690 | -0.21212 | 210 ft | 4 kts | 259° |
| 2026-05-04 10:41 | 51.14679 | -0.21294 | 210 ft | 10 kts | 253° |
| 2026-05-04 10:41 | 51.14635 | -0.21338 | 210 ft | 9 kts | 169° |
| 2026-05-04 10:42 | 51.14611 | -0.21329 | 210 ft | 0 kts | 167° |
| 2026-05-04 10:42 | 51.14595 | -0.21323 | 210 ft | 7 kts | 167° |
| 2026-05-04 10:42 | 51.14541 | -0.21285 | 210 ft | 10 kts | 135° |
| 2026-05-04 10:42 | 51.14512 | -0.21181 | 210 ft | 11 kts | 88° |
| 2026-05-04 10:43 | 51.14529 | -0.21046 | 210 ft | 9 kts | 78° |
| 2026-05-04 10:44 | 51.14535 | -0.21001 | 210 ft | 1 kts | 78° |
| 2026-05-04 10:45 | 51.14536 | -0.20998 | 210 ft | 0 kts | 78° |
| 2026-05-04 10:45 | 51.14536 | -0.20997 | 210 ft | 0 kts | 78° |
| 2026-05-04 10:45 | 51.14537 | -0.20988 | 210 ft | 4 kts | 78° |
| 2026-05-04 10:46 | 51.14586 | -0.20631 | 210 ft | 67 kts | 77° |
| 2026-05-04 10:46 | 51.14734 | -0.19567 | 211 ft | 127 kts | 78° |
| 2026-05-04 10:46 | 51.14953 | -0.17948 | 277 ft | 163 kts | 78° |
| 2026-05-04 10:46 | 51.15190 | -0.16217 | 877 ft | 156 kts | 78° |
| 2026-05-04 10:47 | 51.15422 | -0.14516 | 1417 ft | 162 kts | 78° |
| 2026-05-04 10:47 | 51.15670 | -0.12705 | 1795 ft | 174 kts | 78° |
| 2026-05-04 10:47 | 51.15936 | -0.10756 | 2153 ft | 187 kts | 78° |
| 2026-05-04 10:47 | 51.16220 | -0.08658 | 2522 ft | 200 kts | 78° |
| 2026-05-04 10:49 | 51.08343 | 0.04554 | 6703 ft | 273 kts | 166° |
| 2026-05-04 10:49 | 51.06455 | 0.04946 | 7472 ft | 276 kts | 174° |
| 2026-05-04 10:50 | 51.04539 | 0.05337 | 8220 ft | 279 kts | 172° |
| 2026-05-04 10:51 | 50.90580 | 0.08713 | 13009 ft | 301 kts | 171° |
| 2026-05-04 10:52 | 50.88500 | 0.09212 | 13628 ft | 303 kts | 171° |
| 2026-05-04 10:52 | 50.86404 | 0.09714 | 14229 ft | 306 kts | 171° |
| 2026-05-04 10:52 | 50.84286 | 0.10221 | 14816 ft | 309 kts | 171° |
| 2026-05-04 10:54 | 50.68638 | 0.09557 | 17451 ft | 364 kts | 194° |
| 2026-05-04 10:54 | 50.66142 | 0.08552 | 17618 ft | 377 kts | 194° |
| 2026-05-04 10:56 | 50.47552 | 0.01879 | 20601 ft | 401 kts | 193° |
| 2026-05-04 10:56 | 50.44803 | 0.00890 | 21173 ft | 400 kts | 193° |
| 2026-05-04 10:56 | 50.42123 | -0.00070 | 21635 ft | 401 kts | 193° |
| 2026-05-04 10:57 | 50.39395 | -0.01039 | 22046 ft | 403 kts | 192° |
| 2026-05-04 10:57 | 50.36648 | -0.01996 | 22440 ft | 406 kts | 192° |
| 2026-05-04 10:57 | 50.33891 | -0.02964 | 22823 ft | 408 kts | 193° |
| 2026-05-04 10:57 | 50.31115 | -0.03952 | 23198 ft | 410 kts | 193° |
| 2026-05-04 10:58 | 50.28323 | -0.04953 | 23564 ft | 413 kts | 193° |
| 2026-05-04 10:58 | 50.25515 | -0.05959 | 23919 ft | 415 kts | 193° |
| 2026-05-04 10:58 | 50.22665 | -0.06730 | 24254 ft | 417 kts | 184° |
| 2026-05-04 10:58 | 50.19770 | -0.06540 | 24575 ft | 419 kts | 169° |
| 2026-05-04 10:59 | 50.16987 | -0.05179 | 24899 ft | 421 kts | 157° |
| 2026-05-04 10:59 | 50.14317 | -0.03276 | 25221 ft | 423 kts | 154° |
| 2026-05-04 10:59 | 50.11662 | -0.01266 | 25534 ft | 425 kts | 154° |
| 2026-05-04 10:59 | 50.08913 | 0.00475 | 25837 ft | 427 kts | 162° |
| 2026-05-04 11:00 | 50.06045 | 0.01723 | 26148 ft | 429 kts | 166° |
| 2026-05-04 11:01 | 49.86442 | 0.09252 | 28067 ft | 442 kts | 166° |
| 2026-05-04 11:02 | 49.83454 | 0.10424 | 28337 ft | 444 kts | 166° |
| 2026-05-04 11:02 | 49.80451 | 0.11595 | 28602 ft | 446 kts | 166° |
| 2026-05-04 11:05 | 49.37778 | 0.28577 | 32551 ft | 452 kts | 165° |
| 2026-05-04 11:06 | 49.34732 | 0.29794 | 32836 ft | 451 kts | 165° |
| 2026-05-04 11:06 | 49.31699 | 0.30997 | 33113 ft | 451 kts | 165° |
| 2026-05-04 11:06 | 49.28661 | 0.32206 | 33385 ft | 450 kts | 165° |
| 2026-05-04 11:06 | 49.25641 | 0.33465 | 33654 ft | 450 kts | 164° |
| 2026-05-04 11:08 | 49.04611 | 0.42345 | 35012 ft | 446 kts | 165° |
| 2026-05-04 11:10 | 48.83638 | 0.51091 | 35011 ft | 446 kts | 165° |
| 2026-05-04 11:12 | 48.59642 | 0.60597 | 35010 ft | 446 kts | 165° |
| 2026-05-04 11:12 | 48.53588 | 0.62971 | 35005 ft | 446 kts | 165° |
| 2026-05-04 11:13 | 48.47624 | 0.65324 | 34999 ft | 446 kts | 165° |
| 2026-05-04 11:13 | 48.41633 | 0.67797 | 34992 ft | 446 kts | 165° |
| 2026-05-04 11:14 | 48.35634 | 0.70236 | 34986 ft | 446 kts | 165° |
| 2026-05-04 11:16 | 48.11624 | 0.79789 | 34981 ft | 446 kts | 165° |
| 2026-05-04 11:16 | 48.05629 | 0.82140 | 34973 ft | 446 kts | 165° |
| 2026-05-04 11:17 | 47.99623 | 0.84497 | 34969 ft | 446 kts | 165° |
| 2026-05-04 11:19 | 47.75602 | 0.93834 | 34968 ft | 446 kts | 165° |
| 2026-05-04 11:19 | 47.69632 | 0.96145 | 34970 ft | 446 kts | 165° |
| 2026-05-04 11:20 | 47.63629 | 0.98456 | 34972 ft | 446 kts | 165° |
| 2026-05-04 11:20 | 47.57622 | 1.00761 | 34974 ft | 446 kts | 165° |
| 2026-05-04 11:22 | 47.36375 | 1.06444 | 34954 ft | 446 kts | 181° |
| 2026-05-04 11:22 | 47.33275 | 1.06279 | 34960 ft | 446 kts | 182° |
| 2026-05-04 11:23 | 47.27072 | 1.05997 | 34971 ft | 446 kts | 181° |
| 2026-05-04 11:25 | 47.05355 | 1.05548 | 34989 ft | 446 kts | 181° |
| 2026-05-04 11:25 | 46.99157 | 1.05394 | 34989 ft | 446 kts | 181° |
| 2026-05-04 11:27 | 46.71281 | 1.04156 | 34985 ft | 446 kts | 181° |
| 2026-05-04 11:28 | 46.65079 | 1.03891 | 34981 ft | 446 kts | 181° |
| 2026-05-04 11:28 | 46.58876 | 1.03631 | 34979 ft | 446 kts | 181° |
| 2026-05-04 11:29 | 46.52672 | 1.03420 | 34974 ft | 446 kts | 178° |
| 2026-05-04 11:29 | 46.46571 | 1.04856 | 34981 ft | 445 kts | 167° |
| 2026-05-04 11:33 | 46.04320 | 1.19031 | 34968 ft | 445 kts | 167° |
| 2026-05-04 11:33 | 45.98282 | 1.21038 | 34967 ft | 445 kts | 167° |
| 2026-05-04 11:34 | 45.92239 | 1.23019 | 34968 ft | 445 kts | 167° |
| 2026-05-04 11:34 | 45.86196 | 1.25001 | 34969 ft | 445 kts | 167° |
| 2026-05-04 11:35 | 45.80154 | 1.26977 | 34967 ft | 445 kts | 167° |
| 2026-05-04 11:35 | 45.74120 | 1.28953 | 34965 ft | 445 kts | 167° |
| 2026-05-04 11:36 | 45.68077 | 1.30925 | 34964 ft | 445 kts | 167° |
| 2026-05-04 11:36 | 45.62033 | 1.32886 | 34963 ft | 445 kts | 167° |
| 2026-05-04 11:37 | 45.55988 | 1.34839 | 34962 ft | 445 kts | 167° |
| 2026-05-04 11:37 | 45.49949 | 1.36795 | 34963 ft | 445 kts | 167° |
| 2026-05-04 11:38 | 45.43907 | 1.38754 | 34965 ft | 445 kts | 167° |
| 2026-05-04 11:38 | 45.37903 | 1.40685 | 34966 ft | 445 kts | 167° |
| 2026-05-04 11:39 | 45.31856 | 1.42631 | 34965 ft | 445 kts | 167° |
| 2026-05-04 11:40 | 45.13758 | 1.48424 | 34204 ft | 444 kts | 167° |
| 2026-05-04 11:41 | 45.10742 | 1.49380 | 33775 ft | 443 kts | 167° |
| 2026-05-04 11:41 | 45.07739 | 1.50335 | 33271 ft | 442 kts | 167° |
| 2026-05-04 11:41 | 45.04741 | 1.51291 | 32774 ft | 441 kts | 167° |
| 2026-05-04 11:41 | 45.01754 | 1.52243 | 32250 ft | 440 kts | 167° |
| 2026-05-04 11:42 | 44.98778 | 1.53186 | 31723 ft | 439 kts | 167° |
| 2026-05-04 11:42 | 44.95803 | 1.54128 | 31191 ft | 438 kts | 167° |
| 2026-05-04 11:42 | 44.92835 | 1.55067 | 30659 ft | 436 kts | 167° |
| 2026-05-04 11:42 | 44.89876 | 1.56004 | 30154 ft | 434 kts | 167° |
| 2026-05-04 11:43 | 44.86931 | 1.56936 | 29612 ft | 433 kts | 167° |
| 2026-05-04 11:43 | 44.84034 | 1.57852 | 29086 ft | 432 kts | 167° |
| 2026-05-04 11:43 | 44.81080 | 1.58783 | 28570 ft | 428 kts | 167° |
| 2026-05-04 11:43 | 44.78190 | 1.59694 | 28069 ft | 423 kts | 167° |
| 2026-05-04 11:44 | 44.75329 | 1.60593 | 27568 ft | 419 kts | 167° |
| 2026-05-04 11:44 | 44.72532 | 1.61472 | 27067 ft | 416 kts | 167° |
| 2026-05-04 11:44 | 44.69721 | 1.62352 | 26562 ft | 412 kts | 167° |
| 2026-05-04 11:44 | 44.66934 | 1.63226 | 26062 ft | 409 kts | 167° |
| 2026-05-04 11:45 | 44.64172 | 1.64095 | 25590 ft | 404 kts | 167° |
| 2026-05-04 11:45 | 44.61440 | 1.64953 | 25126 ft | 400 kts | 167° |
| 2026-05-04 11:45 | 44.58731 | 1.65800 | 24626 ft | 398 kts | 167° |
| 2026-05-04 11:45 | 44.56045 | 1.66639 | 24142 ft | 394 kts | 167° |
| 2026-05-04 11:46 | 44.53378 | 1.67471 | 23676 ft | 391 kts | 167° |
| 2026-05-04 11:46 | 44.50737 | 1.68297 | 23213 ft | 387 kts | 167° |
| 2026-05-04 11:46 | 44.48119 | 1.69110 | 22755 ft | 384 kts | 167° |
| 2026-05-04 11:46 | 44.45525 | 1.69917 | 22294 ft | 380 kts | 167° |
| 2026-05-04 11:47 | 44.42959 | 1.70717 | 21833 ft | 377 kts | 167° |
| 2026-05-04 11:47 | 44.40404 | 1.71512 | 21374 ft | 374 kts | 167° |
| 2026-05-04 11:47 | 44.37883 | 1.72297 | 20924 ft | 370 kts | 167° |
| 2026-05-04 11:47 | 44.35381 | 1.73074 | 20499 ft | 366 kts | 167° |
| 2026-05-04 11:48 | 44.32907 | 1.73841 | 20079 ft | 362 kts | 167° |
| 2026-05-04 11:48 | 44.30423 | 1.74282 | 19612 ft | 359 kts | 182° |
| 2026-05-04 11:48 | 44.28005 | 1.73556 | 19156 ft | 356 kts | 204° |
| 2026-05-04 11:48 | 44.25900 | 1.71793 | 18765 ft | 351 kts | 215° |
| 2026-05-04 11:49 | 44.23936 | 1.69793 | 18349 ft | 348 kts | 217° |
| 2026-05-04 11:49 | 44.22006 | 1.67775 | 17932 ft | 345 kts | 217° |
| 2026-05-04 11:49 | 44.20070 | 1.65817 | 17519 ft | 342 kts | 215° |
| 2026-05-04 11:49 | 44.18781 | 1.64564 | 17230 ft | 341 kts | 214° |
| 2026-05-04 11:50 | 44.16820 | 1.62713 | 16808 ft | 339 kts | 214° |
| 2026-05-04 11:50 | 44.14869 | 1.60891 | 16392 ft | 336 kts | 214° |
| 2026-05-04 11:50 | 44.12941 | 1.59074 | 15979 ft | 334 kts | 214° |
| 2026-05-04 11:50 | 44.11026 | 1.57250 | 15568 ft | 332 kts | 214° |
| 2026-05-04 11:51 | 44.09133 | 1.55440 | 15162 ft | 330 kts | 214° |
| 2026-05-04 11:51 | 44.07236 | 1.53631 | 14602 ft | 332 kts | 214° |
| 2026-05-04 11:51 | 44.05305 | 1.51793 | 13879 ft | 340 kts | 214° |
| 2026-05-04 11:51 | 44.03357 | 1.49943 | 13421 ft | 337 kts | 214° |
| 2026-05-04 11:52 | 44.01429 | 1.48112 | 13022 ft | 333 kts | 214° |
| 2026-05-04 11:52 | 43.99525 | 1.46307 | 12639 ft | 329 kts | 214° |
| 2026-05-04 11:52 | 43.97515 | 1.44828 | 12214 ft | 326 kts | 198° |
| 2026-05-04 11:52 | 43.95322 | 1.44101 | 11813 ft | 323 kts | 190° |
| 2026-05-04 11:53 | 43.93108 | 1.43604 | 11397 ft | 321 kts | 188° |
| 2026-05-04 11:53 | 43.90902 | 1.43166 | 10980 ft | 319 kts | 188° |
| 2026-05-04 11:53 | 43.88716 | 1.42711 | 10588 ft | 316 kts | 189° |
| 2026-05-04 11:53 | 43.86560 | 1.42217 | 10293 ft | 310 kts | 189° |
| 2026-05-04 11:55 | 43.74852 | 1.49731 | 8642 ft | 271 kts | 143° |
| 2026-05-04 11:55 | 43.73347 | 1.51301 | 8321 ft | 270 kts | 142° |
| 2026-05-04 11:56 | 43.71866 | 1.52887 | 8003 ft | 269 kts | 142° |
| 2026-05-04 11:56 | 43.70401 | 1.54486 | 7686 ft | 268 kts | 142° |
| 2026-05-04 11:56 | 43.68951 | 1.56050 | 7524 ft | 260 kts | 142° |
| 2026-05-04 11:56 | 43.67550 | 1.57542 | 7431 ft | 250 kts | 142° |
| 2026-05-04 11:57 | 43.66203 | 1.58982 | 7342 ft | 240 kts | 142° |
| 2026-05-04 11:57 | 43.64915 | 1.60367 | 7234 ft | 230 kts | 142° |
| 2026-05-04 11:57 | 43.63661 | 1.61713 | 7002 ft | 227 kts | 142° |
| 2026-05-04 11:57 | 43.62388 | 1.62977 | 6794 ft | 223 kts | 152° |
| 2026-05-04 11:58 | 43.60944 | 1.63524 | 6686 ft | 212 kts | 181° |
| 2026-05-04 11:58 | 43.59498 | 1.63288 | 6496 ft | 208 kts | 191° |
| 2026-05-04 11:58 | 43.58082 | 1.62915 | 6242 ft | 207 kts | 189° |
| 2026-05-04 11:58 | 43.56659 | 1.62632 | 5967 ft | 206 kts | 186° |
| 2026-05-04 11:59 | 43.55240 | 1.62424 | 5646 ft | 205 kts | 186° |
| 2026-05-04 11:59 | 43.53824 | 1.62218 | 5322 ft | 204 kts | 186° |
| 2026-05-04 11:59 | 43.52420 | 1.61979 | 5000 ft | 203 kts | 187° |
| 2026-05-04 11:59 | 43.51024 | 1.61733 | 4676 ft | 202 kts | 187° |
| 2026-05-04 12:00 | 43.49631 | 1.61481 | 4390 ft | 202 kts | 191° |
| 2026-05-04 12:00 | 43.48359 | 1.60732 | 4109 ft | 201 kts | 223° |
| 2026-05-04 12:00 | 43.47662 | 1.59116 | 3824 ft | 199 kts | 257° |
| 2026-05-04 12:00 | 43.47461 | 1.57238 | 3567 ft | 198 kts | 263° |
| 2026-05-04 12:01 | 43.47270 | 1.55360 | 3307 ft | 198 kts | 259° |
| 2026-05-04 12:01 | 43.47162 | 1.53482 | 3046 ft | 197 kts | 283° |
| 2026-05-04 12:02 | 43.53090 | 1.46355 | 2651 ft | 178 kts | 323° |
| 2026-05-04 12:03 | 43.54064 | 1.45351 | 2419 ft | 171 kts | 323° |
| 2026-05-04 12:03 | 43.54987 | 1.44394 | 2199 ft | 161 kts | 323° |
| 2026-05-04 12:03 | 43.55858 | 1.43488 | 2003 ft | 152 kts | 323° |
| 2026-05-04 12:03 | 43.56686 | 1.42628 | 1818 ft | 145 kts | 323° |
| 2026-05-04 12:04 | 43.57471 | 1.41813 | 1623 ft | 140 kts | 323° |
| 2026-05-04 12:04 | 43.58247 | 1.41007 | 1431 ft | 139 kts | 323° |
| 2026-05-04 12:04 | 43.59019 | 1.40204 | 1243 ft | 139 kts | 323° |
| 2026-05-04 12:04 | 43.59781 | 1.39412 | 1058 ft | 139 kts | 323° |
| 2026-05-04 12:05 | 43.60550 | 1.38612 | 872 ft | 138 kts | 323° |
| 2026-05-04 12:05 | 43.61317 | 1.37814 | 689 ft | 138 kts | 323° |
| 2026-05-04 12:05 | 43.62082 | 1.37018 | 520 ft | 136 kts | 323° |
| 2026-05-04 12:05 | 43.62733 | 1.36342 | 513 ft | 92 kts | 322° |
| 2026-05-04 12:06 | 43.63104 | 1.35956 | 513 ft | 42 kts | 323° |
| 2026-05-04 12:06 | 43.63262 | 1.35790 | 513 ft | 26 kts | 322° |
| 2026-05-04 12:06 | 43.63410 | 1.35631 | 513 ft | 28 kts | 323° |
| 2026-05-04 12:06 | 43.63537 | 1.35499 | 513 ft | 16 kts | 329° |
| 2026-05-04 12:07 | 43.63613 | 1.35569 | 513 ft | 16 kts | 54° |
| 2026-05-04 12:07 | 43.63684 | 1.35700 | 513 ft | 18 kts | 53° |
| 2026-05-04 12:07 | 43.63767 | 1.35846 | 513 ft | 21 kts | 51° |
| 2026-05-04 12:07 | 43.63822 | 1.35985 | 513 ft | 13 kts | 128° |
| 2026-05-04 12:08 | 43.63741 | 1.36070 | 513 ft | 16 kts | 143° |
| 2026-05-04 12:08 | 43.63647 | 1.36170 | 513 ft | 18 kts | 142° |
| 2026-05-04 12:08 | 43.63539 | 1.36285 | 513 ft | 21 kts | 142° |
| 2026-05-04 12:08 | 43.63417 | 1.36411 | 513 ft | 23 kts | 143° |
| 2026-05-04 12:09 | 43.63282 | 1.36551 | 513 ft | 23 kts | 142° |
| 2026-05-04 12:09 | 43.63265 | 1.36644 | 513 ft | 10 kts | 59° |
| 2026-05-04 12:09 | 43.63238 | 1.36726 | 513 ft | 12 kts | 140° |
| 2026-05-04 12:09 | 43.63230 | 1.36834 | 513 ft | 13 kts | 83° |
| 2026-05-04 12:10 | 43.63235 | 1.36913 | 513 ft | 0 kts | 85° |